Situs API Video Gratis Terbaik

AVDBAPI.COM

Cari katalog, periksa data, dan salin URL API bersih dari satu dasbor cepat.

Telegram Gabung komunitas Telegram untuk update!
Today
31
Pembaruan Hari Ini
Censored
314121
Video Disensor
Total
474300
Total Video

Daftar Video

Data terbaru diurutkan berdasarkan waktu pembaruan.

ID Nama CODE Kategori Diperbarui API
264913 042816-550 Bagian Terbaik Ai Uehara - Part 2 042816-550 Tanpa sensor 2025-08-29 03:50:30 API
264912 031321-01 Perawat Amatir yang Penuh Rasa Ingin Tahu 031321-01 Tanpa sensor 2025-08-29 03:50:20 API
264911 HEYZO-2622 Shiori Yamagishi [Shiori Yamagishi] Bawa pacarku tidur dong! -Permintaan NTR dari teman dekat- HEYZO-2622 Tanpa sensor 2025-08-29 03:50:10 API
264910 100521-001 File Gairah Wanita: Kurumi Koi 100521-001 Tanpa sensor 2025-08-29 03:50:00 API
264909 FC2-PPV-4494567 Muncul! Terbatas 3 hari saja! Gadis komite kelas yang sangat imut di sekolah FC2-PPV-4494567 Tanpa sensor 2025-08-29 03:49:50 API
264908 042920_001 Edisi Spesial: Wanita Beraroma Khas Era Showa yang Menggoda 042920_001 Tanpa sensor 2025-08-29 03:49:40 API
264907 C0930-KI210605 Wanita Matang 40 Tahun Yuko Kamei C0930-KI210605 Tanpa sensor 2025-08-29 03:49:30 API
264906 H0930-KI211128 Wanita Matang 40 Tahun Chisato Miura H0930-KI211128 Tanpa sensor 2025-08-29 03:49:20 API
264905 H4610-KI220419 Yua Hirasawa Umur 25 Tahun H4610-KI220419 Tanpa sensor 2025-08-29 03:49:10 API
264904 101520-371 Guru Bahasa Inggris yang Baru Pulang Negeri Benar-benar Dimanjakan Sampai Ketagihan! 101520-371 Tanpa sensor 2025-08-29 03:49:00 API
264903 HEYZO-2631 Rie Oshima [Rie Oshima] Puas2 HEYZO-2631 Tanpa sensor 2025-08-29 03:48:50 API
264902 100621-001 Unreleased ~ Kumpulan cewek-cewek penggila Deep Throat! ~ Chisato Takayama, Yui Kawagoe, Rena, Mika, Maki Koizumi 100621-001 Tanpa sensor 2025-08-29 03:48:40 API
264901 031421-01 Koleksi Pussy Pilihan Terbaik - Silakan Lihat Pussy Yuko - 031421-01 Tanpa sensor 2025-08-29 03:48:30 API
264900 FC2-PPV-4495983 Paizuri Susu Melimpah. Wajah Imut dengan Payudara Besar Alami. Sekali Lihat Langsung Sange, Tubuh Seksi yang Bikin Ketagihan! Ibu Terbaik yang Pernah Ada! FC2-PPV-4495983 Tanpa sensor 2025-08-29 03:48:20 API
264899 043020_001 Langsung ngisap empeng karena ketagihan kontol 043020_001 Tanpa sensor 2025-08-29 03:48:10 API
264898 H0930-KI211130 Wanita Matang 51 Tahun Mariko Sumita H0930-KI211130 Tanpa sensor 2025-08-29 03:48:00 API
264896 C0930-KI210608 Wanita Cantik 35 Tahun Mai Kawasato C0930-KI210608 Tanpa sensor 2025-08-29 03:47:40 API
264895 HEZ-464 Merayu Tante Biasa yang Kulihat di Jalan Untuk Dicokot dan Cumshot di Dalam Vagina! 20 Orang 5 Jam HEZ-464 Disensor (Mosaik) 2025-08-29 03:47:30 API
264894 NKD-029-B NakedAngel Linker NKD-029-B Tanpa sensor 2025-08-29 03:47:20 API
264893 HEYZO-2623 Jessica Takizawa French Kiss Basah, Seks Ketat yang Sangat Becek dan Nakal! HEYZO-2623 Tanpa sensor 2025-08-29 03:47:10 API
264892 050316-554 Model Gravure Berpayudara Besar Tertipu ~ Tubuh Seksi yang Menakjubkan ~ 050316-554 Tanpa sensor 2025-08-29 03:47:00 API
264890 FC2-PPV-4497790 Cewek Nude Cowgirl Menghilang dan Dikenyot Creampied 2 Kali / Mandi Erotis / Sabunan Badan / Selfie Masturbasi! Debut Mummy W *Close up parah! Tempat terbaik untuk nonton dan komen FC2-PPV-4497790 Tanpa sensor 2025-08-29 03:46:40 API
264888 101720-372 Pertama kalinya cukur kemaluan! Memek mulus yang jadi super sensitif 101720-372 Tanpa sensor 2025-08-29 03:46:20 API
264887 H0930-KI211202 Seks Hot Yumiko Takeshita Usia 33 Tahun H0930-KI211202 Tanpa sensor 2025-08-29 03:46:10 API
264886 100721-001 Buku Foto Memek Nao Fujishima 100721-001 Tanpa sensor 2025-08-29 03:46:00 API
264885 HEYZO-2624 Hasegawa Telanjang Bugil [Hasegawa Mira] Kenikmatan dengan Pijat Erotis! ~ Pesona Tubuh Telanjang Hasegawa ~ HEYZO-2624 Tanpa sensor 2025-08-29 03:45:50 API
264883 050120_001 Tokimeki ~ Pria Tampan dengan Tubuh Seksi dan Sensasi Licin yang Enak Banget Dipeluk ~ 050120_001 Tanpa sensor 2025-08-29 03:45:30 API
264882 C0930-KI210610 Wanita Matang 47 Tahun Atsuko Kiyono C0930-KI210610 Tanpa sensor 2025-08-29 03:45:20 API
264881 050316-556 Wanita Cantik Tampak Sopan, Padahal Aslinya Pelacur Gatel 050316-556 Tanpa sensor 2025-08-29 03:45:10 API
264880 FC2-PPV-4494759 [Rilisan Terbatas 2980¥/1980¥] FC2-PPV-4494759 Tanpa sensor 2025-08-29 03:45:00 API
264879 100821-001 BOGA x BOGA ~ Yui Kisaragi memuji cara mainku di ranjang ~ Yui Kisaragi 100821-001 Tanpa sensor 2025-08-29 03:44:50 API
264878 H0930-KI211205 Gadis Cantik 23 Tahun Asumi Shimazaki H0930-KI211205 Tanpa sensor 2025-08-29 03:44:40 API
264877 031921-01 Koleksi Memek Paling Berharga - Silakan Lihat Memek Kazumi - 031921-01 Tanpa sensor 2025-08-29 03:44:30 API
264876 HEYZO-2640 Rika [Rika] Karya terbaru: Gadis tercantik Rika (20) Diberondong sperma langsung di vagina tanpa kondom HEYZO-2640 Tanpa sensor 2025-08-29 03:44:20 API
264875 SDJS-158 Rin Miyazaki menerima pesanan bisnis di sex shop yang hampir bangkrut! Klub masturbasi, salon kecantikan pria, kesehatan! SDJS-158 Disensor (Mosaik) 2025-08-29 03:44:10 API
264874 C0930-KI210613 Makiko Oikawa Wanita Cantik Usia 30 Tahun C0930-KI210613 Tanpa sensor 2025-08-29 03:44:00 API
264873 SE223 Karya Pertama Amane: Dicokot Teman Masa Kecil Sampai Ketagihan SE223 Tanpa sensor 2025-08-29 03:43:50 API
264871 050220_001 Tubuh Eksotis Yang Menggairahkan Bak Bom 050220_001 Tanpa sensor 2025-08-29 03:43:30 API
264870 102020-373 Tolong pijat aku pakai cheongsam seksi ini! 102020-373 Tanpa sensor 2025-08-29 03:43:20 API
264869 032021-01 Amatir Kecanduan Seks Kinky Bareng Om 032021-01 Tanpa sensor 2025-08-29 03:43:10 API
264868 H4610-ORI1779 Gadis Cantik Usia 20 Tahun Kinose Sayami H4610-ORI1779 Tanpa sensor 2025-08-29 03:43:00 API
264867 CARIBBEANCOMPR-052016_569 Model S Tinggi 156 Ekspos Tubuh di Luar Ruangan Dan Dihajar Creampie Terus Menerus CARIBBEANCOMPR-052016_569 Tanpa sensor 2025-08-29 03:42:50 API
264866 100921-001 Dua anak perempuan gila orgy dan surga 4P yang nikmat bersama Shino Aoi & Aya Eikura 100921-001 Tanpa sensor 2025-08-29 03:42:40 API
264865 HEYZO-2625 Remi Fuyutsuki [Remi Fuyutsuki] Negosiasi Seksual dengan Wanita Seksi Menggunakan Sabun Mewah HEYZO-2625 Tanpa sensor 2025-08-29 03:42:30 API
264864 050320_001 Godaan Manchira 050320_001 Tanpa sensor 2025-08-29 03:42:20 API
264863 102220-374 Dulu Kamu Masih Muda ~ Cosplay Seragam Pelaut ~ 102220-374 Tanpa sensor 2025-08-29 03:42:10 API
264861 C0930-KI210612 Wanita Matang 48 Tahun Aiko Hashimoto C0930-KI210612 Tanpa sensor 2025-08-29 03:41:50 API
264860 FC2-PPV-4497503 Perpaduan berbahaya "Rori" dan "Madam"! Nyonya Shino yang menyebalkan dan Yumi-chan si l*nt* kecil yang hampir mati kena 4P! Bab 2 & Yumi-chan Bab 3 [Versi Luar Negeri] FC2-PPV-4497503 Tanpa sensor 2025-08-29 03:41:40 API
264859 KB1540 Team Kimura Edisi Spesial: Marin Raw Insertion Tanpa Kondom KB1540 Tanpa sensor 2025-08-29 03:41:30 API
264858 101021-001 Kisah Putri Gelembung Terbaik Vol.93 Non Suzumiya 101021-001 Tanpa sensor 2025-08-29 03:41:20 API